Iliysk North Airport

Jump to: basic info | weather | comments

Related pages: nearby airports | nearby navaids

Basic information (top)

Location: lon 43.998299, lat 77.139099, elev 2,343 ft / 714 m msl
Status: small_airport

Weather (top)

Current conditions for Almaty Airport 39nm (72km) S (rec'd 2014/10/02 01:30Z):

UAAA 020130Z 04003MPS 020V080 9999 SCT050CB BKN100 10/08 Q1020 R88/65D NOSIG

Airport forecast for Almaty Airport 39nm (72km) S (rec'd 2014/10/01 00:18Z):

TAF TAF UAAA 012300Z 0200/0224 03005MPS 9999 BKN0033CB OVC100 TX15/0208Z TN08/0201Z 
      TEMPO 0203/0212 VRB13MPS TSRA SQ 
      TEMPO 0212/0224 31005MPS 3000 SHRA BR BKN020CB OVC100

Latest comments (top)

No comments yet for Iliysk North Airport

More... (top)

See also NOTAMs and nearby airports and navaids, or visit the Iliysk North Airport page at the main OurAirports website..